createdAt,value
2023-01-12T00:02:20.581Z,3.92
2023-01-12T00:04:48.937Z,3.60
2023-01-12T00:07:18.264Z,3.85
2023-01-12T00:09:46.615Z,3.78
2023-01-12T00:12:14.941Z,4.43
2023-01-12T00:14:43.148Z,4.30
2023-01-12T00:17:14.325Z,4.30
2023-01-12T00:19:42.550Z,4.05
2023-01-12T00:22:12.632Z,4.25
2023-01-12T00:24:49.782Z,4.00
2023-01-12T00:27:20.444Z,4.30
2023-01-12T00:29:50.305Z,4.38
2023-01-12T00:32:20.749Z,4.00
2023-01-12T00:34:49.088Z,4.10
2023-01-12T00:37:17.249Z,4.28
2023-01-12T00:40:00.992Z,3.67
2023-01-12T00:42:48.521Z,4.57
2023-01-12T00:45:22.739Z,4.70
2023-01-12T00:47:51.516Z,4.53
2023-01-12T00:50:20.031Z,4.63
2023-01-12T00:52:48.215Z,5.10
2023-01-12T00:55:19.415Z,4.38
2023-01-12T00:57:48.144Z,5.35
2023-01-12T01:00:17.163Z,4.88
2023-01-12T01:02:45.448Z,4.80
2023-01-12T01:05:13.912Z,5.18
2023-01-12T01:07:42.098Z,4.28
2023-01-12T01:10:14.374Z,4.72
2023-01-12T01:12:43.093Z,4.38
2023-01-12T01:15:11.715Z,4.45
2023-01-12T01:17:39.833Z,4.32
2023-01-12T01:20:08.488Z,4.40
2023-01-12T01:22:36.703Z,3.70
2023-01-12T01:25:05.217Z,4.18
2023-01-12T01:27:34.512Z,4.10
2023-01-12T01:30:02.778Z,4.80
2023-01-12T01:32:31.005Z,4.40
2023-01-12T01:34:59.155Z,4.75
2023-01-12T01:37:28.321Z,4.55
2023-01-12T01:39:56.535Z,4.30
2023-01-12T01:42:28.824Z,4.38
2023-01-12T01:44:59.468Z,4.57
2023-01-12T01:47:50.389Z,4.18
2023-01-12T01:50:28.812Z,4.95
2023-01-12T01:53:02.403Z,4.60
2023-01-12T01:55:36.715Z,5.20
2023-01-12T01:58:16.707Z,5.40
2023-01-12T02:00:46.397Z,5.60
2023-01-12T02:03:16.437Z,5.43
2023-01-12T02:05:49.019Z,5.32
2023-01-12T02:08:28.893Z,5.15
2023-01-12T02:10:58.989Z,4.85
2023-01-12T02:13:49.631Z,4.38
2023-01-12T02:16:25.644Z,4.03
2023-01-12T02:18:56.689Z,3.42
2023-01-12T02:22:00.314Z,3.17
2023-01-12T02:24:34.442Z,4.18
2023-01-12T02:27:11.600Z,4.35
2023-01-12T02:30:14.206Z,4.13
2023-01-12T02:33:14.301Z,3.83
2023-01-12T02:36:05.659Z,3.83
2023-01-12T02:38:40.906Z,4.03
2023-01-12T02:41:19.637Z,4.72
2023-01-12T02:43:47.900Z,5.47
2023-01-12T02:46:26.247Z,5.25
2023-01-12T02:49:15.001Z,5.80
2023-01-12T02:52:03.809Z,5.75
2023-01-12T02:54:34.863Z,5.32
2023-01-12T02:57:07.574Z,5.90
2023-01-12T02:59:45.366Z,6.05
2023-01-12T03:02:19.978Z,5.65
2023-01-12T03:04:48.539Z,6.80
2023-01-12T03:07:36.038Z,5.63
2023-01-12T03:10:10.198Z,6.50
2023-01-12T03:12:43.688Z,5.47
2023-01-12T03:15:16.236Z,5.70
2023-01-12T03:17:48.054Z,5.65
2023-01-12T03:20:23.210Z,5.60
2023-01-12T03:22:57.967Z,6.38
2023-01-12T03:25:28.571Z,5.43
2023-01-12T03:27:59.967Z,5.88
2023-01-12T03:30:38.942Z,5.30
2023-01-12T03:33:08.907Z,5.60
2023-01-12T03:35:47.480Z,6.07
2023-01-12T03:38:51.184Z,6.75
2023-01-12T03:41:38.100Z,6.38
2023-01-12T03:44:12.668Z,6.55
2023-01-12T03:46:46.886Z,6.72
2023-01-12T03:49:47.765Z,6.25
2023-01-12T03:52:18.091Z,7.07
2023-01-12T03:54:49.664Z,6.40
2023-01-12T03:57:19.951Z,5.90
2023-01-12T03:59:49.288Z,5.97
2023-01-12T04:02:17.646Z,6.38
2023-01-12T04:04:45.988Z,6.40
2023-01-12T04:07:14.215Z,6.07
2023-01-12T04:09:44.757Z,6.53
2023-01-12T04:12:13.068Z,6.07
2023-01-12T04:14:47.948Z,6.30
2023-01-12T04:17:16.694Z,7.50
2023-01-12T04:19:45.034Z,6.10
2023-01-12T04:22:34.594Z,6.57
2023-01-12T04:25:03.607Z,5.55
2023-01-12T04:27:31.807Z,5.40
2023-01-12T04:29:59.966Z,6.40
2023-01-12T04:32:28.250Z,5.65
2023-01-12T04:34:56.396Z,5.55
2023-01-12T04:37:24.742Z,5.90
2023-01-12T04:39:52.937Z,5.88
2023-01-12T04:42:39.810Z,5.57
2023-01-12T04:45:08.462Z,4.82
2023-01-12T04:47:36.604Z,4.93
2023-01-12T04:50:05.554Z,5.40
2023-01-12T04:52:34.718Z,4.75
2023-01-12T04:55:03.591Z,4.65
2023-01-12T04:57:32.552Z,3.80
2023-01-12T05:00:00.738Z,4.32
2023-01-12T05:02:29.152Z,4.90
2023-01-12T05:04:57.276Z,5.00
2023-01-12T05:07:25.464Z,4.25
2023-01-12T05:10:12.302Z,4.10
2023-01-12T05:12:40.585Z,4.65
2023-01-12T05:15:09.580Z,5.38
2023-01-12T05:17:37.765Z,4.30
2023-01-12T05:20:06.599Z,3.80
2023-01-12T05:22:34.903Z,3.97
2023-01-12T05:25:03.057Z,3.90
2023-01-12T05:27:31.242Z,3.10
2023-01-12T05:29:59.776Z,2.85
2023-01-12T05:32:28.004Z,2.42
2023-01-12T05:34:56.139Z,2.63
2023-01-12T05:37:24.340Z,3.58
2023-01-12T05:39:52.498Z,3.50
2023-01-12T05:42:39.380Z,2.92
2023-01-12T05:45:08.224Z,3.70
2023-01-12T05:47:36.552Z,3.50
2023-01-12T05:50:05.680Z,3.50
2023-01-12T05:52:33.849Z,3.75
2023-01-12T05:55:03.796Z,4.18
2023-01-12T05:57:32.183Z,4.45
2023-01-12T06:00:00.411Z,3.70
2023-01-12T06:02:28.846Z,3.88
2023-01-12T06:04:57.142Z,3.65
2023-01-12T06:07:25.356Z,4.28
2023-01-12T06:09:55.884Z,4.63
2023-01-12T06:12:42.621Z,4.47
2023-01-12T06:15:11.004Z,4.38
2023-01-12T06:17:39.391Z,4.70
2023-01-12T06:20:08.249Z,4.60
2023-01-12T06:22:36.452Z,4.50
2023-01-12T06:25:04.875Z,4.15
2023-01-12T06:27:35.430Z,4.05
2023-01-12T06:30:07.352Z,4.00
2023-01-12T06:32:36.071Z,4.50
2023-01-12T06:35:17.955Z,4.95
2023-01-12T06:37:46.776Z,5.38
2023-01-12T06:40:15.232Z,4.82
2023-01-12T06:42:46.843Z,5.35
2023-01-12T06:45:15.235Z,5.18
2023-01-12T06:47:49.369Z,5.35
2023-01-12T06:50:17.747Z,5.90
2023-01-12T06:52:46.047Z,6.05
2023-01-12T06:55:14.403Z,5.72
2023-01-12T06:57:42.719Z,5.88
2023-01-12T07:00:13.283Z,5.80
2023-01-12T07:02:41.531Z,5.90
2023-01-12T07:05:09.893Z,5.45
2023-01-12T07:07:40.038Z,5.60
2023-01-12T07:10:09.709Z,5.80
2023-01-12T07:12:38.621Z,5.97
2023-01-12T07:15:07.448Z,6.13
2023-01-12T07:17:35.641Z,5.72
2023-01-12T07:20:04.166Z,5.82
2023-01-12T07:22:32.678Z,5.40
2023-01-12T07:25:01.062Z,5.35
2023-01-12T07:27:29.460Z,5.97
2023-01-12T07:29:57.653Z,5.30
2023-01-12T07:32:27.530Z,6.50
2023-01-12T07:34:55.691Z,6.95
2023-01-12T07:37:23.934Z,8.07
2023-01-12T07:39:52.042Z,6.45
2023-01-12T07:42:26.046Z,5.55
2023-01-12T07:44:54.435Z,6.53
2023-01-12T07:47:23.065Z,6.47
2023-01-12T07:49:51.266Z,5.93
2023-01-12T07:52:19.474Z,6.35
2023-01-12T07:54:47.682Z,6.15
2023-01-12T07:57:16.016Z,6.10
2023-01-12T07:59:44.262Z,6.25
2023-01-12T08:02:16.596Z,7.43
2023-01-12T08:04:46.128Z,7.00
2023-01-12T08:07:15.089Z,7.50
2023-01-12T08:09:43.464Z,8.98
2023-01-12T08:12:11.716Z,7.07
2023-01-12T08:14:41.914Z,6.78
2023-01-12T08:17:20.571Z,6.72
2023-01-12T08:20:02.863Z,7.22
2023-01-12T08:22:38.042Z,7.93
2023-01-12T08:25:30.554Z,6.75
2023-01-12T08:28:04.593Z,7.43
2023-01-12T08:30:33.013Z,6.78
2023-01-12T08:33:02.555Z,5.90
2023-01-12T08:35:34.595Z,5.28
2023-01-12T08:38:02.781Z,5.57
2023-01-12T08:40:50.951Z,5.30
2023-01-12T08:43:39.115Z,6.85
2023-01-12T08:46:10.633Z,6.68
2023-01-12T08:48:39.235Z,5.43
2023-01-12T08:51:08.521Z,7.22
2023-01-12T08:53:36.808Z,6.13
2023-01-12T08:56:06.391Z,8.73
2023-01-12T08:58:34.572Z,7.13
2023-01-12T09:01:10.807Z,8.13
2023-01-12T09:03:39.560Z,7.95
2023-01-12T09:06:23.872Z,8.75
2023-01-12T09:08:57.219Z,8.07
2023-01-12T09:13:56.260Z,8.02
2023-01-12T09:16:25.384Z,8.65
2023-01-12T09:18:53.978Z,9.20
2023-01-12T09:21:25.369Z,9.77
2023-01-12T09:23:54.820Z,9.25
2023-01-12T09:26:26.967Z,8.95
2023-01-12T09:28:57.027Z,9.95
2023-01-12T09:31:25.735Z,9.43
2023-01-12T09:33:54.693Z,9.15
2023-01-12T09:36:32.310Z,9.07
2023-01-12T09:39:02.104Z,9.45
2023-01-12T09:42:08.500Z,9.65
2023-01-12T09:45:01.902Z,9.18
2023-01-12T09:47:40.778Z,9.27
2023-01-12T09:50:15.978Z,9.75
2023-01-12T09:52:50.555Z,11.57
2023-01-12T09:55:29.500Z,10.15
2023-01-12T09:58:16.412Z,8.88
2023-01-12T10:00:49.022Z,8.65
2023-01-12T10:03:38.993Z,9.20
2023-01-12T10:06:09.374Z,8.90
2023-01-12T10:08:44.600Z,9.00
2023-01-12T10:11:19.384Z,9.03
2023-01-12T10:14:24.480Z,8.98
2023-01-12T10:17:10.245Z,7.75
2023-01-12T10:20:06.293Z,8.93
2023-01-12T10:22:42.339Z,9.05
2023-01-12T10:25:23.221Z,9.23
2023-01-12T10:27:54.013Z,9.15
2023-01-12T10:30:42.549Z,10.00
2023-01-12T10:33:21.139Z,12.32
2023-01-12T10:35:55.417Z,11.52
2023-01-12T10:38:28.330Z,11.40
2023-01-12T10:41:13.281Z,11.95
2023-01-12T10:43:43.814Z,11.43
2023-01-12T10:46:12.044Z,11.32
2023-01-12T10:48:48.699Z,10.70
2023-01-12T10:51:26.631Z,11.02
2023-01-12T10:54:10.047Z,10.77
2023-01-12T10:56:41.626Z,11.60
2023-01-12T10:59:12.966Z,11.85
2023-01-12T11:02:08.612Z,12.02
2023-01-12T11:04:43.737Z,12.48
2023-01-12T11:07:22.205Z,13.00
2023-01-12T11:09:50.461Z,12.77
2023-01-12T11:12:18.601Z,12.45
2023-01-12T11:15:00.913Z,12.20
2023-01-12T11:17:57.010Z,12.90
2023-01-12T11:20:31.187Z,10.85
2023-01-12T11:23:03.165Z,11.15
2023-01-12T11:25:38.048Z,10.00
2023-01-12T11:28:19.803Z,11.45
2023-01-12T11:31:05.362Z,11.10
2023-01-12T11:33:46.281Z,11.90
2023-01-12T11:36:41.492Z,12.95
2023-01-12T11:39:22.789Z,13.27
2023-01-12T11:42:13.743Z,11.52
2023-01-12T11:45:01.685Z,12.10
2023-01-12T11:47:36.064Z,12.35
2023-01-12T11:50:28.448Z,11.20
2023-01-12T11:52:57.966Z,11.65
2023-01-12T11:56:06.101Z,11.85
2023-01-12T11:58:45.844Z,11.50
2023-01-12T12:01:41.167Z,10.32
2023-01-12T12:04:24.294Z,10.57
2023-01-12T12:07:01.049Z,11.23
2023-01-12T12:09:43.788Z,10.20
2023-01-12T12:12:46.756Z,11.13
2023-01-12T12:15:28.754Z,10.60
2023-01-12T12:18:27.394Z,10.00
2023-01-12T12:21:33.493Z,12.40
2023-01-12T12:24:23.053Z,14.30
2023-01-12T12:26:57.483Z,11.50
2023-01-12T12:29:56.822Z,11.80
2023-01-12T12:32:30.464Z,11.80
2023-01-12T12:35:18.884Z,10.63
2023-01-12T12:38:14.353Z,9.65
2023-01-12T12:41:10.448Z,8.90
2023-01-12T12:43:57.808Z,9.05
2023-01-12T12:46:47.450Z,8.77
2023-01-12T12:49:23.534Z,9.60
2023-01-12T12:51:53.083Z,8.82
2023-01-12T12:54:26.137Z,9.35
2023-01-12T12:56:55.918Z,9.50
2023-01-12T12:59:32.999Z,8.38
2023-01-12T13:02:03.605Z,9.50
2023-01-12T13:04:43.847Z,7.80
2023-01-12T13:07:19.114Z,8.63
2023-01-12T13:09:48.919Z,8.02
2023-01-12T13:12:31.131Z,7.85
2023-01-12T13:15:18.945Z,8.55
2023-01-12T13:17:49.851Z,9.27
2023-01-12T13:20:33.777Z,9.07
2023-01-12T13:23:02.044Z,8.15
2023-01-12T13:25:36.576Z,8.10
2023-01-12T13:28:04.736Z,8.70
2023-01-12T13:30:34.286Z,8.23
2023-01-12T13:33:25.983Z,7.05
2023-01-12T13:35:55.282Z,6.50
2023-01-12T13:38:52.289Z,6.90
2023-01-12T13:41:44.627Z,7.30
2023-01-12T13:44:34.810Z,7.25
2023-01-12T13:47:09.517Z,8.45
2023-01-12T13:49:46.546Z,8.70
2023-01-12T13:52:37.121Z,9.93
2023-01-12T13:55:19.982Z,9.70
2023-01-12T13:58:14.232Z,10.50
2023-01-12T14:00:42.993Z,8.02
2023-01-12T14:03:42.896Z,7.40
2023-01-12T14:06:33.987Z,6.75
2023-01-12T14:09:12.920Z,7.07
2023-01-12T14:11:50.501Z,7.03
2023-01-12T14:15:12.857Z,6.43
2023-01-12T14:17:50.336Z,6.45
2023-01-12T14:20:22.399Z,6.95
2023-01-12T14:23:05.328Z,7.22
2023-01-12T14:25:33.519Z,7.50
2023-01-12T14:28:01.733Z,5.68
2023-01-12T14:30:30.366Z,7.18
2023-01-12T14:32:58.683Z,6.32
2023-01-12T14:35:26.955Z,5.13
2023-01-12T14:38:01.431Z,5.57
2023-01-12T14:40:33.499Z,6.35
2023-01-12T14:43:21.796Z,5.45
2023-01-12T14:46:20.262Z,6.05
2023-01-12T14:48:58.867Z,5.82
2023-01-12T14:51:37.967Z,5.68
2023-01-12T14:54:06.181Z,5.47
2023-01-12T14:56:56.903Z,6.10
2023-01-12T14:59:30.366Z,6.25
2023-01-12T15:02:13.952Z,6.20
2023-01-12T15:07:38.855Z,5.10
2023-01-12T15:10:09.837Z,5.63
2023-01-12T15:12:48.392Z,5.82
2023-01-12T15:15:22.494Z,5.10
2023-01-12T15:18:11.393Z,5.78
2023-01-12T15:21:02.989Z,7.18
2023-01-12T15:23:54.902Z,5.88
2023-01-12T15:26:23.501Z,6.25
2023-01-12T15:28:51.753Z,6.75
2023-01-12T15:31:36.752Z,5.68
2023-01-12T15:34:05.870Z,6.32
2023-01-12T15:36:34.196Z,5.60
2023-01-12T15:39:02.376Z,6.93
2023-01-12T15:41:50.850Z,7.95
2023-01-12T15:44:21.465Z,6.22
2023-01-12T15:46:49.693Z,6.10
2023-01-12T15:49:17.908Z,6.13
2023-01-12T15:51:52.976Z,6.30
2023-01-12T15:54:21.870Z,7.25
2023-01-12T15:56:50.151Z,6.25
2023-01-12T15:59:18.295Z,9.00
2023-01-12T16:01:48.727Z,12.43
2023-01-12T16:07:07.671Z,11.50
2023-01-12T16:09:35.974Z,11.00
2023-01-12T16:12:04.448Z,11.27
2023-01-12T16:14:32.646Z,11.85
2023-01-12T16:17:00.795Z,11.52
2023-01-12T16:19:29.079Z,11.02
2023-01-12T16:21:57.332Z,12.07
2023-01-12T16:24:26.844Z,13.07
2023-01-12T16:26:55.303Z,10.75
2023-01-12T16:29:24.228Z,10.35
2023-01-12T16:31:52.552Z,10.85
2023-01-12T16:34:23.651Z,10.80
2023-01-12T16:36:51.987Z,10.32
2023-01-12T16:39:20.221Z,11.77
2023-01-12T16:41:48.667Z,12.07
2023-01-12T16:44:16.860Z,12.82
2023-01-12T16:46:45.198Z,10.85
2023-01-12T16:49:13.334Z,9.85
2023-01-12T16:51:42.071Z,9.88
2023-01-12T16:54:10.252Z,10.25
2023-01-12T16:56:42.098Z,9.48
2023-01-12T16:59:10.351Z,10.25
2023-01-12T17:01:38.629Z,9.10
2023-01-12T17:04:06.911Z,9.10
2023-01-12T17:06:36.959Z,8.85
2023-01-12T17:09:06.425Z,9.35
2023-01-12T17:11:35.723Z,9.35
2023-01-12T17:14:23.017Z,9.68
2023-01-12T17:16:54.417Z,8.68
2023-01-12T17:19:24.256Z,8.15
2023-01-12T17:21:54.997Z,9.30
2023-01-12T17:24:24.342Z,10.25
2023-01-12T17:26:56.651Z,9.25
2023-01-12T17:29:26.780Z,8.20
2023-01-12T17:32:03.305Z,8.45
2023-01-12T17:34:34.008Z,8.75
2023-01-12T17:37:04.174Z,9.63
2023-01-12T17:39:32.329Z,9.18
2023-01-12T17:42:19.190Z,8.60
2023-01-12T17:44:47.619Z,9.75
2023-01-12T17:47:15.900Z,9.50
2023-01-12T17:49:45.290Z,10.38
2023-01-12T17:52:14.140Z,8.77
2023-01-12T17:54:42.418Z,8.73
2023-01-12T17:57:10.638Z,7.95
2023-01-12T17:59:39.211Z,9.10
2023-01-12T18:02:07.874Z,10.07
2023-01-12T18:04:36.066Z,8.88
2023-01-12T18:07:04.268Z,9.52
2023-01-12T18:09:32.517Z,8.82
2023-01-12T18:12:04.813Z,8.65
2023-01-12T18:14:33.825Z,8.35
2023-01-12T18:17:02.376Z,9.30
2023-01-12T18:19:30.727Z,11.00
2023-01-12T18:21:59.113Z,11.18
2023-01-12T18:24:27.631Z,11.07
2023-01-12T18:26:55.967Z,11.38
2023-01-12T18:29:24.885Z,11.88
2023-01-12T18:31:53.151Z,11.70
2023-01-12T18:34:21.408Z,11.55
2023-01-12T18:36:49.545Z,13.02
2023-01-12T18:39:22.034Z,13.00
2023-01-12T18:42:09.507Z,13.45
2023-01-12T18:44:38.812Z,14.13
2023-01-12T18:47:26.036Z,11.85
2023-01-12T18:49:57.630Z,13.25
2023-01-12T18:52:44.444Z,13.70
2023-01-12T18:55:13.745Z,13.43
2023-01-12T18:57:41.973Z,13.55
2023-01-12T19:00:17.832Z,13.40
2023-01-12T19:02:46.998Z,13.27
2023-01-12T19:05:19.969Z,11.93
2023-01-12T19:08:00.220Z,13.55
2023-01-12T19:10:30.306Z,13.10
2023-01-12T19:13:18.029Z,13.30
2023-01-12T19:16:04.824Z,13.65
2023-01-12T19:18:39.371Z,13.68
2023-01-12T19:21:28.451Z,13.38
2023-01-12T19:24:15.389Z,12.43
2023-01-12T19:27:02.082Z,12.73
2023-01-12T19:29:35.105Z,11.23
2023-01-12T19:32:04.542Z,11.48
2023-01-12T19:34:32.735Z,11.60
2023-01-12T19:37:00.966Z,11.73
2023-01-12T19:40:00.292Z,11.05
2023-01-12T19:42:50.395Z,11.80
2023-01-12T19:45:18.919Z,11.60
2023-01-12T19:47:48.855Z,12.75
2023-01-12T19:50:17.575Z,10.70
2023-01-12T19:52:46.640Z,11.15
2023-01-12T19:55:15.339Z,10.60
2023-01-12T19:57:44.940Z,10.68
2023-01-12T20:00:15.310Z,9.80
2023-01-12T20:02:48.783Z,9.02
2023-01-12T20:05:22.530Z,10.25
2023-01-12T20:07:52.674Z,9.55
2023-01-12T20:10:24.380Z,9.93
2023-01-12T20:12:52.702Z,10.93
2023-01-12T20:15:21.485Z,10.45
2023-01-12T20:17:50.538Z,10.38
2023-01-12T20:20:19.381Z,10.93
2023-01-12T20:22:50.050Z,11.52
2023-01-12T20:25:19.346Z,11.27
2023-01-12T20:27:49.193Z,12.40
2023-01-12T20:30:31.948Z,11.95
2023-01-12T20:33:06.238Z,14.40
2023-01-12T20:35:35.260Z,14.52
2023-01-12T20:38:06.847Z,14.40
2023-01-12T20:40:38.949Z,13.07
2023-01-12T20:43:07.419Z,11.82
2023-01-12T20:45:35.637Z,13.13
2023-01-12T20:48:04.371Z,12.70
2023-01-12T20:50:33.254Z,13.38
2023-01-12T20:53:01.639Z,12.65
2023-01-12T20:55:29.873Z,12.90
2023-01-12T20:58:00.726Z,13.07
2023-01-12T21:00:32.674Z,14.07
2023-01-12T21:03:01.035Z,13.05
2023-01-12T21:05:30.665Z,13.45
2023-01-12T21:08:07.347Z,14.45
2023-01-12T21:10:47.744Z,13.85
2023-01-12T21:13:16.709Z,13.85
2023-01-12T21:15:45.050Z,16.17
2023-01-12T21:18:13.577Z,15.70
2023-01-12T21:20:43.249Z,19.42
2023-01-12T21:23:11.865Z,17.75
2023-01-12T21:25:45.469Z,18.25
2023-01-12T21:28:14.399Z,17.33
2023-01-12T21:30:42.562Z,17.85
2023-01-12T21:33:11.735Z,18.98
2023-01-12T21:35:40.485Z,20.27
2023-01-12T21:38:09.680Z,19.45
2023-01-12T21:40:38.931Z,19.48
2023-01-12T21:43:09.938Z,19.00
2023-01-12T21:45:39.855Z,19.13
2023-01-12T21:48:08.975Z,18.60
2023-01-12T21:50:38.332Z,18.52
2023-01-12T21:53:07.423Z,19.15
2023-01-12T21:55:36.156Z,19.48
2023-01-12T21:58:07.485Z,20.88
2023-01-12T22:00:37.080Z,18.80
2023-01-12T22:03:05.875Z,23.13
2023-01-12T22:05:34.321Z,21.23
2023-01-12T22:08:03.365Z,20.05
2023-01-12T22:10:31.822Z,20.55
2023-01-12T22:13:02.768Z,20.02
2023-01-12T22:15:31.770Z,19.40
2023-01-12T22:18:00.683Z,18.50
2023-01-12T22:20:28.977Z,17.85
2023-01-12T22:22:57.310Z,18.65
2023-01-12T22:25:26.068Z,18.02
2023-01-12T22:27:55.995Z,17.42
2023-01-12T22:30:25.403Z,17.20
2023-01-12T22:32:57.913Z,16.70
2023-01-12T22:35:26.389Z,17.42
2023-01-12T22:37:58.618Z,15.93
2023-01-12T22:40:26.851Z,16.25
2023-01-12T22:43:13.702Z,14.68
2023-01-12T22:45:41.949Z,16.10
2023-01-12T22:48:10.198Z,15.02
2023-01-12T22:50:38.425Z,18.95
2023-01-12T22:53:06.628Z,19.67
2023-01-12T22:55:37.869Z,15.98
2023-01-12T22:58:07.337Z,16.17
2023-01-12T23:00:40.363Z,15.50
2023-01-12T23:03:13.200Z,15.23
2023-01-12T23:05:49.328Z,14.68
2023-01-12T23:08:17.664Z,14.70
2023-01-12T23:10:45.988Z,14.02
2023-01-12T23:13:19.903Z,15.50
2023-01-12T23:15:55.733Z,14.40
2023-01-12T23:18:29.521Z,15.02
2023-01-12T23:21:15.968Z,13.75
2023-01-12T23:23:49.416Z,12.43
2023-01-12T23:26:20.480Z,12.95
2023-01-12T23:28:51.673Z,13.25
2023-01-12T23:31:22.359Z,13.48
2023-01-12T23:33:51.195Z,12.25
2023-01-12T23:36:22.300Z,12.23
2023-01-12T23:38:59.214Z,12.43
2023-01-12T23:41:29.291Z,13.63
2023-01-12T23:43:59.970Z,12.65
2023-01-12T23:46:30.273Z,13.05
2023-01-12T23:48:58.763Z,12.80
2023-01-12T23:51:28.970Z,13.30
2023-01-12T23:53:59.452Z,13.45
2023-01-12T23:56:32.603Z,12.63
2023-01-12T23:59:01.664Z,12.75
